Time;durP1;ratioP1;P1;durP2;ratioP2;P2;SDS_P1;SDS_P2;PMS_P1;PMS_P2;Temp;Humidity;BMP_temperature;BMP_pressure;BME280_temperature;BME280_humidity;BME280_pressure;Samples;Min_cycle;Max_cycle;Signal;HPM_P1;HPM_P2
2022/02/21 00:00:35;;;;;;;5.88;0.93;;;6.40;97.10;;;;;;2092292;28;20578;-89
2022/02/21 00:01:35;;;;;;;2.97;0.80;;;6.40;97.10;;;;;;2082479;28;20058;-89
2022/02/21 00:02:38;;;;;;;3.22;0.85;;;6.40;97.10;;;;;;2076921;28;20035;-89
2022/02/21 00:03:39;;;;;;;6.47;1.10;;;6.40;97.10;;;;;;2056127;28;20513;-90
2022/02/21 00:04:40;;;;;;;6.90;0.80;;;6.40;97.00;;;;;;2055195;28;20031;-89
2022/02/21 00:05:40;;;;;;;6.30;1.45;;;6.40;97.00;;;;;;2055941;28;20066;-89
2022/02/21 00:06:44;;;;;;;7.15;1.30;;;6.40;97.00;;;;;;2055511;28;20108;-90
2022/02/21 00:07:45;;;;;;;5.47;1.30;;;6.40;97.00;;;;;;2043308;28;20070;-90
2022/02/21 00:08:46;;;;;;;4.78;0.90;;;6.40;96.90;;;;;;2090489;28;20068;-90
2022/02/21 00:09:47;;;;;;;6.78;0.90;;;6.40;97.00;;;;;;2072748;28;20056;-90
2022/02/21 00:10:48;;;;;;;4.68;1.13;;;6.50;97.00;;;;;;2100402;28;20164;-89
2022/02/21 00:11:48;;;;;;;6.38;1.38;;;6.50;97.00;;;;;;2080995;28;20053;-89
2022/02/21 00:12:49;;;;;;;3.58;0.80;;;6.50;97.00;;;;;;2051979;28;20043;-89
2022/02/21 00:13:49;;;;;;;9.45;1.40;;;6.50;96.90;;;;;;2054768;28;20412;-89
2022/02/21 00:14:50;;;;;;;3.72;0.80;;;6.40;96.90;;;;;;2094999;28;20028;-90
2022/02/21 00:15:51;;;;;;;6.82;1.15;;;6.40;96.90;;;;;;2064464;28;20043;-90
2022/02/21 00:16:51;;;;;;;4.05;0.80;;;6.40;96.90;;;;;;2059716;28;20042;-90
2022/02/21 00:17:53;;;;;;;4.60;0.90;;;6.40;96.90;;;;;;2055949;28;20039;-89
2022/02/21 00:18:53;;;;;;;3.80;0.80;;;6.40;96.90;;;;;;2055175;28;20452;-89
2022/02/21 00:19:54;;;;;;;6.93;1.10;;;6.40;97.00;;;;;;2052745;28;20136;-90
2022/02/21 00:20:55;;;;;;;5.72;0.90;;;6.40;96.70;;;;;;2063820;28;20027;-89
2022/02/21 00:21:55;;;;;;;5.18;1.02;;;6.40;96.80;;;;;;2059786;28;20116;-90
2022/02/21 00:22:56;;;;;;;5.15;0.82;;;6.40;96.70;;;;;;2064587;28;20030;-89
2022/02/21 00:23:57;;;;;;;6.85;1.40;;;6.40;96.70;;;;;;2056365;28;20043;-89
2022/02/21 00:24:57;;;;;;;5.65;1.00;;;6.40;96.70;;;;;;2048138;28;20126;-89
2022/02/21 00:25:58;;;;;;;6.13;1.10;;;6.40;96.70;;;;;;2059722;28;20035;-89
2022/02/21 00:26:59;;;;;;;5.15;1.10;;;6.40;96.70;;;;;;2061543;28;20068;-90
2022/02/21 00:28:00;;;;;;;5.75;0.88;;;6.40;96.70;;;;;;2056368;28;20039;-90
2022/02/21 00:29:00;;;;;;;5.07;1.00;;;6.40;96.70;;;;;;2056121;28;20058;-90
2022/02/21 00:30:01;;;;;;;4.80;1.08;;;6.30;96.60;;;;;;2057507;28;20489;-89
2022/02/21 00:31:02;;;;;;;6.30;1.10;;;6.30;96.90;;;;;;2061896;28;20038;-90
2022/02/21 00:32:03;;;;;;;6.15;1.08;;;6.30;96.50;;;;;;2063867;28;20080;-90
2022/02/21 00:33:04;;;;;;;8.30;1.40;;;6.20;96.40;;;;;;2059289;28;20051;-90
2022/02/21 00:34:04;;;;;;;4.85;1.30;;;6.20;96.40;;;;;;2065999;28;20125;-90
2022/02/21 00:35:05;;;;;;;7.18;1.38;;;6.10;96.30;;;;;;2079395;28;20065;-89
2022/02/21 00:36:06;;;;;;;8.65;1.42;;;6.10;96.30;;;;;;2054213;28;20031;-90
2022/02/21 00:37:07;;;;;;;6.03;1.10;;;6.00;96.30;;;;;;2063501;28;20038;-90
2022/02/21 00:38:08;;;;;;;8.70;1.55;;;6.00;96.40;;;;;;2064213;28;20038;-90
2022/02/21 00:39:09;;;;;;;5.00;1.00;;;5.90;96.40;;;;;;2063764;28;20474;-90
2022/02/21 00:40:09;;;;;;;8.02;1.50;;;5.90;96.50;;;;;;2059972;28;20042;-90
2022/02/21 00:41:10;;;;;;;8.65;1.20;;;5.90;96.50;;;;;;2058629;28;20038;-89
2022/02/21 00:42:11;;;;;;;7.07;1.02;;;5.80;96.60;;;;;;2059097;28;20205;-90
2022/02/21 00:43:11;;;;;;;6.60;1.23;;;5.80;96.70;;;;;;2059503;28;20138;-89
2022/02/21 00:44:12;;;;;;;8.00;1.33;;;5.80;96.60;;;;;;2057024;28;20501;-90
2022/02/21 00:45:13;;;;;;;7.45;1.20;;;5.80;96.60;;;;;;2060787;28;20145;-90
2022/02/21 00:46:13;;;;;;;8.82;1.38;;;5.80;97.00;;;;;;2062071;28;20064;-90
2022/02/21 00:47:15;;;;;;;9.95;1.65;;;5.90;96.70;;;;;;2091808;28;20081;-89
2022/02/21 00:48:16;;;;;;;7.97;1.48;;;5.80;96.70;;;;;;2095763;28;20040;-90
2022/02/21 00:49:17;;;;;;;6.95;1.10;;;5.80;96.70;;;;;;2080462;28;20478;-89
2022/02/21 00:50:18;;;;;;;4.07;0.93;;;5.90;96.80;;;;;;2057623;28;20042;-90
2022/02/21 00:51:19;;;;;;;8.00;1.48;;;5.80;96.70;;;;;;2096205;28;20517;-90
2022/02/21 00:52:20;;;;;;;9.10;1.65;;;5.90;96.80;;;;;;2088535;28;20036;-89
2022/02/21 00:53:20;;;;;;;6.15;1.30;;;5.90;96.70;;;;;;2059875;28;20040;-90
2022/02/21 00:54:21;;;;;;;9.32;1.42;;;5.90;96.70;;;;;;2054938;28;20134;-90
2022/02/21 00:55:22;;;;;;;7.93;1.50;;;5.90;96.70;;;;;;2053817;28;20042;-89
2022/02/21 00:56:22;;;;;;;10.48;1.70;;;5.90;96.50;;;;;;2046214;28;20428;-89
2022/02/21 00:57:23;;;;;;;8.45;1.60;;;5.90;96.60;;;;;;2034158;28;20442;-90
2022/02/21 00:58:24;;;;;;;11.05;1.63;;;5.90;96.60;;;;;;2039943;28;20122;-89
2022/02/21 00:59:25;;;;;;;8.57;1.77;;;5.90;96.50;;;;;;2054482;28;20456;-90
2022/02/21 01:00:25;;;;;;;10.63;1.42;;;5.90;96.50;;;;;;2058606;28;20035;-89
2022/02/21 01:01:26;;;;;;;8.07;1.58;;;5.90;96.50;;;;;;2063596;28;20042;-90
2022/02/21 01:02:27;;;;;;;8.45;1.40;;;5.90;96.50;;;;;;2055800;28;20125;-90
2022/02/21 01:03:28;;;;;;;7.13;1.42;;;5.90;96.40;;;;;;2098033;28;20032;-88
2022/02/21 01:04:29;;;;;;;9.35;1.73;;;5.90;96.40;;;;;;2058627;28;20050;-90
2022/02/21 01:05:30;;;;;;;11.73;2.10;;;5.90;96.40;;;;;;2045713;28;20044;-89
2022/02/21 01:06:30;;;;;;;8.23;1.70;;;5.90;96.40;;;;;;2062154;28;20035;-90
2022/02/21 01:07:31;;;;;;;7.85;2.35;;;5.90;96.30;;;;;;2056294;28;20591;-90
2022/02/21 01:08:32;;;;;;;12.77;2.65;;;5.90;96.20;;;;;;2088732;28;20056;-90
2022/02/21 01:09:33;;;;;;;11.05;1.80;;;5.90;96.10;;;;;;2101838;28;20040;-90
2022/02/21 01:10:33;;;;;;;10.55;2.42;;;5.80;96.00;;;;;;2089780;28;20043;-90
2022/02/21 01:11:34;;;;;;;11.70;1.85;;;5.80;96.00;;;;;;2055358;28;20040;-88
2022/02/21 01:12:35;;;;;;;7.40;1.50;;;5.70;96.20;;;;;;2071289;28;20035;-90
2022/02/21 01:13:35;;;;;;;10.65;1.70;;;5.60;95.90;;;;;;2060181;28;20046;-90
2022/02/21 01:14:36;;;;;;;5.30;1.40;;;5.60;95.90;;;;;;2070826;28;20089;-90
2022/02/21 01:15:37;;;;;;;11.85;2.17;;;5.50;95.90;;;;;;2075186;28;20180;-90
2022/02/21 01:16:37;;;;;;;9.18;1.67;;;5.40;95.90;;;;;;2068855;28;20036;-90
2022/02/21 01:17:38;;;;;;;12.38;2.08;;;5.40;96.10;;;;;;2048498;28;20501;-90
2022/02/21 01:18:38;;;;;;;7.13;1.48;;;5.40;96.10;;;;;;2051429;28;20049;-90
2022/02/21 01:19:39;;;;;;;10.82;1.60;;;5.30;95.90;;;;;;2056510;28;20043;-90
2022/02/21 01:20:40;;;;;;;9.70;1.80;;;5.30;96.00;;;;;;2060961;28;20034;-89
2022/02/21 01:21:40;;;;;;;8.13;1.33;;;5.20;95.70;;;;;;2064638;28;20080;-90
2022/02/21 01:22:41;;;;;;;7.85;1.40;;;5.10;95.90;;;;;;2057078;28;20038;-89
2022/02/21 01:23:42;;;;;;;10.10;1.25;;;5.10;95.90;;;;;;2080403;28;20528;-89
2022/02/21 01:24:42;;;;;;;5.82;1.38;;;5.00;95.90;;;;;;2054841;28;20092;-89
2022/02/21 01:25:43;;;;;;;6.90;1.48;;;5.00;96.00;;;;;;2063561;28;20045;-89
2022/02/21 01:26:44;;;;;;;8.73;1.70;;;4.90;96.10;;;;;;2062809;28;20550;-89
2022/02/21 01:27:44;;;;;;;7.40;1.20;;;4.90;96.20;;;;;;2056640;28;20448;-89
2022/02/21 01:28:45;;;;;;;9.10;1.70;;;4.90;96.30;;;;;;2062407;28;20323;-89
2022/02/21 01:29:46;;;;;;;9.90;1.58;;;4.90;96.30;;;;;;2092074;28;20040;-90
2022/02/21 01:30:46;;;;;;;9.35;1.67;;;4.90;96.30;;;;;;2060170;28;20030;-90
2022/02/21 01:31:47;;;;;;;10.68;1.50;;;4.90;96.40;;;;;;2049496;28;20078;-89
2022/02/21 01:32:48;;;;;;;10.70;1.70;;;4.90;96.40;;;;;;2079092;28;20070;-90
2022/02/21 01:33:48;;;;;;;9.55;1.65;;;4.90;96.40;;;;;;2102895;28;20068;-89
2022/02/21 01:34:49;;;;;;;7.32;1.40;;;4.90;96.50;;;;;;2094488;28;20051;-89
2022/02/21 01:35:50;;;;;;;8.18;1.50;;;5.00;96.50;;;;;;2095657;28;20045;-89
2022/02/21 01:36:52;;;;;;;7.13;1.60;;;5.00;96.50;;;;;;2084311;28;20064;-89
2022/02/21 01:37:52;;;;;;;6.68;1.35;;;5.00;96.50;;;;;;2064938;28;20090;-90
2022/02/21 01:38:53;;;;;;;8.55;1.48;;;5.00;96.50;;;;;;2036119;28;20037;-90
2022/02/21 01:39:54;;;;;;;7.05;1.33;;;5.00;96.50;;;;;;2053672;28;20041;-88
2022/02/21 01:40:54;;;;;;;8.55;1.35;;;5.00;96.70;;;;;;2053462;28;20493;-90
2022/02/21 01:41:55;;;;;;;10.65;1.80;;;5.10;96.40;;;;;;2063701;28;20039;-89
2022/02/21 01:42:55;;;;;;;8.20;1.25;;;5.10;96.40;;;;;;2063910;28;20048;-89
2022/02/21 01:44:10;;;;;;;5.45;1.30;;;5.10;96.40;;;;;;2062944;28;20042;-89
2022/02/21 01:45:10;;;;;;;6.22;1.23;;;5.10;96.40;;;;;;2062119;28;20507;-90
2022/02/21 01:46:11;;;;;;;9.60;1.80;;;5.10;96.30;;;;;;2061704;28;20038;-89
2022/02/21 01:47:17;;;;;;;11.18;1.83;;;5.20;96.30;;;;;;2062756;28;20046;-90
2022/02/21 01:48:17;;;;;;;8.93;1.73;;;5.20;96.20;;;;;;2063973;28;20538;-90
2022/02/21 01:49:18;;;;;;;9.27;1.83;;;5.20;96.10;;;;;;2058082;28;20031;-90
2022/02/21 01:50:19;;;;;;;11.30;1.52;;;5.20;96.20;;;;;;2057908;28;20399;-90
2022/02/21 01:51:19;;;;;;;9.10;1.85;;;5.20;96.00;;;;;;2064863;28;20046;-90
2022/02/21 01:52:20;;;;;;;9.43;1.58;;;5.20;96.10;;;;;;2058649;28;20132;-91
2022/02/21 01:53:21;;;;;;;15.18;2.13;;;5.20;96.00;;;;;;2049594;28;20063;-89
2022/02/21 01:54:22;;;;;;;10.38;1.73;;;5.30;95.50;;;;;;2069112;28;20050;-89
2022/02/21 01:55:22;;;;;;;9.68;1.65;;;5.30;95.60;;;;;;2057606;28;20071;-90
2022/02/21 01:56:27;;;;;;;10.80;1.50;;;5.30;95.60;;;;;;2068489;28;20043;-89
2022/02/21 01:57:29;;;;;;;11.35;1.60;;;5.30;95.60;;;;;;2097393;28;20060;-90
2022/02/21 01:58:30;;;;;;;8.60;1.80;;;5.30;95.60;;;;;;2088346;28;20040;-90
2022/02/21 01:59:33;;;;;;;8.55;1.67;;;5.30;95.50;;;;;;2046896;28;20059;-90
2022/02/21 02:00:34;;;;;;;6.10;1.20;;;5.20;95.80;;;;;;2040278;28;20486;-90
2022/02/21 02:01:34;;;;;;;8.05;1.50;;;5.30;95.50;;;;;;2089694;28;20070;-90
2022/02/21 02:02:35;;;;;;;8.75;1.65;;;5.20;95.60;;;;;;2066781;28;20108;-90
2022/02/21 02:03:35;;;;;;;7.50;1.58;;;5.20;95.50;;;;;;2089547;28;20090;-89
2022/02/21 02:04:37;;;;;;;6.68;1.23;;;5.20;95.50;;;;;;2089894;28;20533;-90
2022/02/21 02:05:37;;;;;;;8.32;1.40;;;5.20;95.50;;;;;;2060431;28;20050;-89
2022/02/21 02:06:38;;;;;;;10.57;1.67;;;5.20;95.50;;;;;;2081051;28;20138;-90
2022/02/21 02:07:40;;;;;;;5.95;1.20;;;5.20;95.50;;;;;;2060219;28;20055;-89
2022/02/21 02:08:40;;;;;;;7.82;1.45;;;5.20;95.50;;;;;;2091347;28;20454;-90
2022/02/21 02:09:41;;;;;;;9.27;2.05;;;5.20;95.50;;;;;;2089886;28;20045;-89
2022/02/21 02:10:43;;;;;;;11.30;1.70;;;5.20;95.30;;;;;;2098266;28;20585;-90
2022/02/21 02:11:44;;;;;;;7.55;1.42;;;5.30;95.50;;;;;;2058257;28;20078;-90
2022/02/21 02:12:45;;;;;;;6.95;1.30;;;5.30;95.70;;;;;;2083674;28;20093;-89
2022/02/21 02:13:50;;;;;;;9.45;1.73;;;5.20;95.40;;;;;;2058368;28;20039;-90
2022/02/21 02:14:50;;;;;;;6.55;1.33;;;5.30;95.40;;;;;;2067338;28;20026;-90
2022/02/21 02:15:52;;;;;;;9.25;1.92;;;5.30;95.60;;;;;;2066352;28;20062;-89
2022/02/21 02:16:53;;;;;;;9.88;1.60;;;5.20;95.30;;;;;;2060000;28;20523;-90
2022/02/21 02:17:54;;;;;;;12.25;1.50;;;5.30;95.20;;;;;;2063099;28;20062;-90
2022/02/21 02:18:55;;;;;;;9.35;1.48;;;5.20;95.20;;;;;;2051213;28;20550;-90
2022/02/21 02:19:55;;;;;;;9.65;1.67;;;5.20;95.10;;;;;;2055358;28;20038;-89
2022/02/21 02:20:56;;;;;;;8.27;1.55;;;5.30;95.20;;;;;;2061505;28;20039;-89
2022/02/21 02:21:59;;;;;;;8.32;1.33;;;5.20;95.20;;;;;;2085970;28;20052;-90
2022/02/21 02:23:00;;;;;;;5.80;1.27;;;5.20;95.20;;;;;;2067623;28;20117;-89
2022/02/21 02:24:00;;;;;;;8.88;1.60;;;5.30;95.30;;;;;;2054554;28;20417;-90
2022/02/21 02:25:01;;;;;;;9.48;1.88;;;5.20;95.10;;;;;;2062598;28;20039;-89
2022/02/21 02:26:01;;;;;;;8.60;1.60;;;5.20;95.00;;;;;;2057245;28;20037;-90
2022/02/21 02:27:02;;;;;;;4.75;1.35;;;5.20;94.90;;;;;;2058840;28;20405;-89
2022/02/21 02:28:03;;;;;;;7.57;1.42;;;5.20;95.00;;;;;;2060765;28;20090;-90
2022/02/21 02:29:04;;;;;;;10.60;1.40;;;5.20;95.10;;;;;;2059005;28;20082;-89
2022/02/21 02:30:05;;;;;;;7.38;1.33;;;5.20;95.00;;;;;;2040644;28;20111;-89
2022/02/21 02:31:06;;;;;;;7.28;1.45;;;5.20;95.00;;;;;;2045074;28;20130;-90
2022/02/21 02:32:08;;;;;;;13.18;1.75;;;5.30;95.00;;;;;;2075048;28;20037;-89
2022/02/21 02:33:09;;;;;;;9.82;1.75;;;5.20;94.90;;;;;;2091156;28;20388;-90
2022/02/21 02:34:09;;;;;;;6.60;1.33;;;5.20;94.90;;;;;;2056145;28;20039;-90
2022/02/21 02:35:10;;;;;;;8.15;1.33;;;5.30;95.00;;;;;;2061157;28;20030;-90
2022/02/21 02:36:11;;;;;;;6.50;1.10;;;5.30;95.00;;;;;;2054797;28;20090;-89
2022/02/21 02:37:12;;;;;;;7.20;1.65;;;5.30;95.00;;;;;;2053804;28;20553;-89
2022/02/21 02:38:13;;;;;;;9.82;1.52;;;5.30;95.00;;;;;;2049227;28;20047;-89
2022/02/21 02:39:14;;;;;;;7.10;1.30;;;5.30;95.00;;;;;;2068157;28;20460;-89
2022/02/21 02:40:15;;;;;;;7.03;1.55;;;5.20;94.90;;;;;;2090073;28;20053;-89
2022/02/21 02:41:16;;;;;;;7.22;1.40;;;5.30;95.00;;;;;;2090223;28;20037;-89
2022/02/21 02:42:17;;;;;;;7.18;1.55;;;5.30;95.00;;;;;;2088988;28;20037;-90
2022/02/21 02:43:18;;;;;;;9.77;1.45;;;5.20;94.90;;;;;;2064781;28;20101;-90
2022/02/21 02:44:18;;;;;;;10.45;2.15;;;5.20;94.80;;;;;;2092547;28;20049;-89
2022/02/21 02:45:19;;;;;;;10.13;2.03;;;5.20;94.90;;;;;;2053961;28;20486;-89
2022/02/21 02:46:20;;;;;;;10.02;1.60;;;5.20;94.90;;;;;;2056805;28;20415;-90
2022/02/21 02:47:20;;;;;;;9.95;1.45;;;5.10;95.00;;;;;;2064845;28;20061;-89
2022/02/21 02:48:21;;;;;;;7.68;1.30;;;5.10;95.00;;;;;;2066953;28;20043;-89
2022/02/21 02:49:22;;;;;;;6.47;1.30;;;5.10;95.00;;;;;;2061406;28;20126;-89
2022/02/21 02:50:22;;;;;;;9.73;1.58;;;5.10;95.10;;;;;;2053219;28;20040;-90
2022/02/21 02:51:23;;;;;;;7.78;1.20;;;5.00;95.00;;;;;;2040352;28;20037;-89
2022/02/21 02:52:24;;;;;;;8.95;1.55;;;5.00;95.10;;;;;;2070748;28;20137;-89
2022/02/21 02:53:24;;;;;;;10.18;1.60;;;5.00;95.10;;;;;;2063811;28;20038;-89
2022/02/21 02:54:25;;;;;;;5.93;1.27;;;5.00;95.10;;;;;;2056952;28;20137;-89
2022/02/21 02:55:26;;;;;;;7.13;1.38;;;5.00;95.20;;;;;;2077429;28;20044;-89
2022/02/21 02:56:27;;;;;;;9.57;1.48;;;5.00;95.20;;;;;;2098998;28;20033;-89
2022/02/21 02:57:27;;;;;;;12.80;1.65;;;5.00;95.20;;;;;;2074429;28;20039;-89
2022/02/21 02:58:28;;;;;;;6.45;1.20;;;4.90;95.40;;;;;;2056131;28;20137;-90
2022/02/21 02:59:29;;;;;;;9.27;1.58;;;5.00;95.10;;;;;;2064152;28;20048;-90
2022/02/21 03:00:29;;;;;;;8.85;1.50;;;4.90;95.10;;;;;;2070420;28;20467;-89
2022/02/21 03:01:30;;;;;;;9.68;1.30;;;4.90;95.20;;;;;;2073736;28;20493;-90
2022/02/21 03:02:31;;;;;;;8.18;1.50;;;4.90;95.10;;;;;;2056695;28;20416;-89
2022/02/21 03:03:31;;;;;;;9.43;1.40;;;4.90;95.30;;;;;;2059120;28;20043;-89
2022/02/21 03:04:32;;;;;;;7.97;1.20;;;4.90;95.10;;;;;;2061179;28;20035;-89
2022/02/21 03:05:33;;;;;;;10.25;2.05;;;4.90;95.30;;;;;;2065044;28;20042;-89
2022/02/21 03:06:33;;;;;;;8.23;1.48;;;4.90;94.90;;;;;;2067160;28;20065;-89
2022/02/21 03:07:34;;;;;;;9.20;1.48;;;4.90;94.90;;;;;;2059304;28;20056;-90
2022/02/21 03:08:35;;;;;;;7.63;1.20;;;4.90;94.90;;;;;;2040742;28;20035;-89
2022/02/21 03:09:36;;;;;;;9.32;1.60;;;4.90;95.00;;;;;;2049818;28;20120;-89
2022/02/21 03:10:36;;;;;;;7.00;1.58;;;4.90;94.90;;;;;;2060384;28;20070;-89
2022/02/21 03:11:37;;;;;;;6.82;1.10;;;4.90;94.90;;;;;;2063028;28;20087;-90
2022/02/21 03:12:37;;;;;;;6.40;1.20;;;4.90;94.90;;;;;;2059936;28;20098;-89
2022/02/21 03:13:38;;;;;;;10.18;1.50;;;4.90;94.90;;;;;;2056692;28;20043;-89
2022/02/21 03:14:39;;;;;;;8.88;1.45;;;4.90;94.70;;;;;;2051439;28;20407;-90
2022/02/21 03:15:39;;;;;;;8.32;1.30;;;4.90;94.80;;;;;;2063180;28;20042;-89
2022/02/21 03:16:40;;;;;;;9.10;2.13;;;4.90;94.70;;;;;;2065496;28;20045;-89
2022/02/21 03:17:40;;;;;;;8.02;1.52;;;4.90;94.70;;;;;;2057224;28;20834;-89
2022/02/21 03:18:41;;;;;;;7.68;1.80;;;4.90;94.60;;;;;;2059600;28;20098;-89
2022/02/21 03:19:42;;;;;;;8.80;1.60;;;4.90;94.70;;;;;;2072526;28;20119;-88
2022/02/21 03:20:42;;;;;;;10.57;1.75;;;4.90;94.60;;;;;;2055851;28;20486;-89
2022/02/21 03:21:43;;;;;;;7.07;1.65;;;4.80;94.50;;;;;;2083598;28;20079;-89
2022/02/21 03:22:46;;;;;;;8.55;1.60;;;4.80;94.60;;;;;;2087898;28;20044;-89
2022/02/21 03:23:47;;;;;;;7.25;1.75;;;4.80;94.70;;;;;;2064304;28;20066;-88
2022/02/21 03:24:48;;;;;;;7.07;1.20;;;4.80;94.60;;;;;;2064898;28;20049;-89
2022/02/21 03:25:49;;;;;;;5.82;1.30;;;4.80;94.60;;;;;;2059172;28;20035;-89
2022/02/21 03:26:50;;;;;;;6.80;1.17;;;4.80;94.60;;;;;;2057783;28;20047;-89
2022/02/21 03:27:50;;;;;;;5.47;1.20;;;4.80;94.70;;;;;;2060240;28;20054;-89
2022/02/21 03:28:51;;;;;;;5.78;1.55;;;4.80;94.60;;;;;;2057262;28;20035;-89
2022/02/21 03:29:51;;;;;;;9.10;1.42;;;4.80;94.50;;;;;;2056776;28;20047;-89
2022/02/21 03:30:53;;;;;;;5.72;1.30;;;4.90;94.50;;;;;;2056297;28;20043;-89
2022/02/21 03:31:54;;;;;;;5.97;1.17;;;4.90;94.50;;;;;;2060200;28;20522;-89
2022/02/21 03:32:54;;;;;;;8.70;1.33;;;4.90;94.50;;;;;;2056694;28;20046;-89
2022/02/21 03:33:55;;;;;;;8.52;1.50;;;4.90;94.50;;;;;;2054621;28;20042;-89
2022/02/21 03:34:57;;;;;;;8.10;1.58;;;4.90;94.50;;;;;;2063559;28;20513;-89
2022/02/21 03:35:57;;;;;;;6.78;1.52;;;4.90;94.40;;;;;;2064329;28;20062;-89
2022/02/21 03:36:58;;;;;;;7.43;2.00;;;4.90;94.30;;;;;;2055200;28;20043;-90
2022/02/21 03:37:59;;;;;;;6.10;1.17;;;4.80;94.30;;;;;;2061845;28;20152;-90
2022/02/21 03:38:59;;;;;;;7.28;1.40;;;4.80;94.30;;;;;;2057640;28;20038;-89
2022/02/21 03:40:00;;;;;;;8.60;1.42;;;4.80;94.40;;;;;;2059860;28;20034;-88
2022/02/21 03:41:00;;;;;;;7.90;1.75;;;4.80;94.40;;;;;;2063526;28;20441;-89
2022/02/21 03:42:01;;;;;;;5.97;1.00;;;4.70;94.40;;;;;;2058231;28;20069;-90
2022/02/21 03:43:02;;;;;;;7.47;1.13;;;4.70;94.50;;;;;;2057693;28;20080;-89
2022/02/21 03:44:03;;;;;;;8.82;1.50;;;4.70;94.60;;;;;;2061758;28;20038;-89
2022/02/21 03:45:05;;;;;;;4.68;1.27;;;4.70;94.70;;;;;;2056298;28;20602;-89
2022/02/21 03:46:06;;;;;;;10.35;1.88;;;4.70;94.70;;;;;;2047967;28;20501;-89
2022/02/21 03:47:07;;;;;;;5.50;1.35;;;4.70;94.70;;;;;;2063618;28;20043;-89
2022/02/21 03:48:08;;;;;;;6.70;1.40;;;4.60;94.70;;;;;;2062739;28;20046;-90
2022/02/21 03:49:09;;;;;;;9.90;2.17;;;4.60;94.60;;;;;;2050424;28;20071;-90
2022/02/21 03:50:10;;;;;;;9.73;1.85;;;4.60;94.50;;;;;;2056803;28;20027;-89
2022/02/21 03:51:10;;;;;;;11.02;2.10;;;4.60;94.50;;;;;;2056438;28;20031;-89
2022/02/21 03:52:11;;;;;;;8.80;2.20;;;4.60;94.50;;;;;;2048679;28;20114;-89
2022/02/21 03:53:11;;;;;;;9.68;2.13;;;4.60;94.60;;;;;;2078560;28;20044;-89
2022/02/21 03:54:12;;;;;;;8.57;1.50;;;4.60;94.60;;;;;;2090341;28;20415;-89
2022/02/21 03:55:13;;;;;;;5.80;1.30;;;4.60;94.60;;;;;;2084190;28;20095;-90
2022/02/21 03:56:14;;;;;;;6.28;1.42;;;4.60;94.60;;;;;;2087331;28;20538;-90
2022/02/21 03:57:14;;;;;;;6.53;1.52;;;4.60;94.60;;;;;;2060521;28;20047;-89
2022/02/21 03:58:15;;;;;;;7.53;1.42;;;4.60;94.70;;;;;;2059019;28;20035;-89
2022/02/21 03:59:16;;;;;;;7.15;1.80;;;4.60;94.50;;;;;;2041521;28;20051;-90
2022/02/21 04:00:18;;;;;;;7.25;1.30;;;4.60;94.70;;;;;;2052241;28;20042;-89
2022/02/21 04:01:19;;;;;;;7.53;1.70;;;4.60;94.70;;;;;;2069894;28;20042;-89
2022/02/21 04:02:20;;;;;;;7.80;1.50;;;4.60;94.60;;;;;;2066454;28;20160;-89
2022/02/21 04:03:20;;;;;;;8.85;1.48;;;4.60;94.60;;;;;;2076723;28;20030;-90
2022/02/21 04:04:21;;;;;;;7.38;1.70;;;4.60;94.60;;;;;;2065097;28;20045;-90
2022/02/21 04:05:21;;;;;;;7.40;1.75;;;4.60;94.60;;;;;;2064227;28;20039;-89
2022/02/21 04:06:22;;;;;;;6.43;1.30;;;4.60;94.50;;;;;;2070685;28;20509;-90
2022/02/21 04:07:23;;;;;;;9.38;1.38;;;4.60;94.60;;;;;;2051369;28;20043;-90
2022/02/21 04:08:23;;;;;;;5.80;1.20;;;4.60;94.50;;;;;;2055880;28;20085;-89
2022/02/21 04:09:24;;;;;;;9.10;1.85;;;4.60;94.50;;;;;;2083229;28;20038;-89
2022/02/21 04:10:25;;;;;;;7.05;1.55;;;4.60;94.80;;;;;;2056300;28;20059;-89
2022/02/21 04:11:26;;;;;;;9.80;1.70;;;4.60;94.50;;;;;;2060720;28;20144;-88
2022/02/21 04:12:27;;;;;;;7.75;1.15;;;4.60;94.40;;;;;;2052256;28;20050;-89
2022/02/21 04:13:27;;;;;;;10.07;1.90;;;4.60;94.70;;;;;;2060001;28;20073;-89
2022/02/21 04:14:28;;;;;;;8.35;1.60;;;4.60;94.40;;;;;;2090404;28;20063;-89
2022/02/21 04:15:29;;;;;;;7.15;1.60;;;4.60;94.40;;;;;;2098510;28;20147;-89
2022/02/21 04:16:32;;;;;;;7.70;1.50;;;4.60;94.40;;;;;;2071024;28;20050;-89
2022/02/21 04:17:41;;;;;;;8.05;1.60;;;4.60;94.40;;;;;;2082557;28;20127;-89
2022/02/21 04:18:41;;;;;;;9.30;1.77;;;4.60;94.30;;;;;;2059571;28;20139;-89
2022/02/21 04:19:42;;;;;;;8.18;1.30;;;4.60;94.50;;;;;;2063982;28;20520;-89
2022/02/21 04:20:43;;;;;;;7.55;1.35;;;4.60;94.30;;;;;;2048987;28;20097;-89
2022/02/21 04:21:43;;;;;;;9.65;1.55;;;4.60;94.30;;;;;;2048842;28;20039;-89
2022/02/21 04:22:45;;;;;;;6.20;1.40;;;4.60;94.30;;;;;;2090062;28;20033;-89
2022/02/21 04:23:45;;;;;;;6.60;1.25;;;4.60;94.30;;;;;;2090618;28;20028;-89
2022/02/21 04:24:46;;;;;;;7.88;1.52;;;4.60;94.20;;;;;;2077615;28;20063;-89
2022/02/21 04:25:47;;;;;;;9.07;1.50;;;4.70;94.10;;;;;;2065416;28;20034;-89
2022/02/21 04:26:47;;;;;;;8.98;1.58;;;4.70;94.10;;;;;;2097354;28;20040;-90
2022/02/21 04:27:51;;;;;;;7.55;1.38;;;4.70;94.10;;;;;;2090177;28;20140;-89
2022/02/21 04:28:52;;;;;;;10.65;2.05;;;4.70;93.80;;;;;;2057209;28;20043;-89
2022/02/21 04:29:52;;;;;;;10.75;1.65;;;4.70;93.80;;;;;;2061050;28;20055;-89
2022/02/21 04:30:53;;;;;;;9.13;1.80;;;4.70;93.90;;;;;;2055822;28;20039;-89
2022/02/21 04:31:54;;;;;;;9.30;1.50;;;4.70;93.90;;;;;;2055000;28;20113;-89
2022/02/21 04:32:55;;;;;;;10.40;1.90;;;4.70;93.80;;;;;;2097853;28;20402;-89
2022/02/21 04:33:56;;;;;;;9.15;1.67;;;4.70;93.70;;;;;;2076366;28;20033;-89
2022/02/21 04:34:56;;;;;;;9.10;1.60;;;4.70;93.60;;;;;;2063754;28;20064;-89
2022/02/21 04:35:57;;;;;;;6.78;1.27;;;4.80;93.70;;;;;;2056824;28;20394;-90
2022/02/21 04:36:57;;;;;;;7.85;1.58;;;4.80;93.70;;;;;;2058257;28;20086;-89
2022/02/21 04:37:58;;;;;;;10.73;1.65;;;4.80;93.50;;;;;;2056970;28;20125;-89
2022/02/21 04:38:59;;;;;;;8.13;1.65;;;4.80;93.60;;;;;;2052491;28;20043;-89
2022/02/21 04:40:00;;;;;;;8.95;1.95;;;4.80;93.40;;;;;;2046988;28;20065;-89
2022/02/21 04:41:00;;;;;;;7.50;1.48;;;4.80;93.40;;;;;;2056348;28;20122;-89
2022/02/21 04:42:01;;;;;;;7.82;1.38;;;4.80;93.40;;;;;;2064541;28;20034;-89
2022/02/21 04:43:02;;;;;;;7.60;1.38;;;4.80;93.40;;;;;;2057992;28;20489;-90
2022/02/21 04:44:03;;;;;;;8.32;1.77;;;4.80;93.30;;;;;;2075707;28;20033;-89
2022/02/21 04:45:05;;;;;;;9.63;1.98;;;4.80;93.10;;;;;;2063541;28;20042;-89
2022/02/21 04:46:07;;;;;;;10.32;1.65;;;4.80;93.00;;;;;;2063773;28;20034;-89
2022/02/21 04:47:07;;;;;;;11.90;1.55;;;4.80;93.10;;;;;;2065868;28;20045;-89
2022/02/21 04:48:08;;;;;;;9.95;1.75;;;4.80;92.80;;;;;;2089933;28;20043;-90
2022/02/21 04:49:09;;;;;;;9.60;1.63;;;4.80;92.80;;;;;;2062086;28;20092;-90
2022/02/21 04:50:10;;;;;;;6.85;1.27;;;4.80;92.80;;;;;;2062381;28;20084;-90
2022/02/21 04:51:11;;;;;;;9.32;1.88;;;4.80;92.90;;;;;;2044729;29;20043;-89
2022/02/21 04:52:12;;;;;;;9.70;1.77;;;4.80;92.90;;;;;;2049071;28;20067;-89
2022/02/21 04:53:13;;;;;;;8.75;1.85;;;4.80;92.70;;;;;;2056188;28;20039;-89
2022/02/21 04:54:13;;;;;;;7.95;2.33;;;4.70;92.80;;;;;;2052762;28;20045;-89
2022/02/21 04:55:14;;;;;;;8.27;1.65;;;4.70;92.70;;;;;;2056267;28;20050;-89
2022/02/21 04:56:15;;;;;;;8.80;1.45;;;4.70;92.80;;;;;;2060741;28;20069;-89
2022/02/21 04:57:16;;;;;;;6.75;1.20;;;4.70;92.60;;;;;;2057377;28;20126;-89
2022/02/21 04:58:17;;;;;;;8.30;1.33;;;4.70;92.80;;;;;;2055316;28;20037;-88
2022/02/21 04:59:17;;;;;;;9.95;1.55;;;4.70;92.40;;;;;;2084920;28;20044;-90
2022/02/21 05:00:18;;;;;;;12.85;1.60;;;4.70;92.40;;;;;;2053675;28;22610;-89
2022/02/21 05:01:18;;;;;;;10.80;2.03;;;4.70;92.20;;;;;;2055603;28;20038;-89
2022/02/21 05:02:19;;;;;;;9.05;1.60;;;4.70;92.20;;;;;;2073968;28;20404;-89
2022/02/21 05:03:20;;;;;;;7.03;1.30;;;4.70;92.20;;;;;;2064351;28;20046;-89
2022/02/21 05:04:20;;;;;;;6.15;1.25;;;4.70;92.30;;;;;;2068451;28;20046;-90
2022/02/21 05:05:21;;;;;;;9.10;1.50;;;4.70;92.30;;;;;;2058576;28;20096;-89
2022/02/21 05:06:22;;;;;;;5.32;1.30;;;4.70;92.30;;;;;;2055993;28;20043;-89
2022/02/21 05:07:22;;;;;;;6.60;1.40;;;4.70;92.30;;;;;;2048932;28;20612;-89
2022/02/21 05:08:26;;;;;;;8.15;1.30;;;4.70;92.20;;;;;;2048714;28;20121;-89
2022/02/21 05:09:26;;;;;;;7.38;1.65;;;4.70;92.30;;;;;;2066630;28;20501;-89
2022/02/21 05:10:28;;;;;;;8.60;1.42;;;4.60;92.20;;;;;;2102048;28;20146;-89
2022/02/21 05:11:29;;;;;;;7.57;1.38;;;4.60;92.20;;;;;;2095743;28;20403;-90
2022/02/21 05:12:29;;;;;;;8.05;1.60;;;4.70;92.30;;;;;;2089909;28;20132;-90
2022/02/21 05:13:30;;;;;;;11.73;1.75;;;4.70;92.10;;;;;;2090021;28;20033;-89
2022/02/21 05:14:31;;;;;;;10.43;1.60;;;4.70;92.10;;;;;;2097253;28;20032;-89
2022/02/21 05:15:31;;;;;;;11.80;1.83;;;4.70;92.10;;;;;;2096765;28;20514;-89
2022/02/21 05:16:32;;;;;;;5.70;1.25;;;4.70;92.10;;;;;;2089628;28;20467;-88
2022/02/21 05:17:32;;;;;;;6.88;1.17;;;4.70;92.10;;;;;;2080995;28;20045;-89
2022/02/21 05:18:33;;;;;;;10.13;1.98;;;4.70;92.10;;;;;;2090615;28;20244;-90
2022/02/21 05:19:34;;;;;;;7.80;1.40;;;4.70;92.10;;;;;;2079426;28;20144;-89
2022/02/21 05:20:35;;;;;;;7.78;1.95;;;4.70;91.90;;;;;;2084625;28;20028;-89